Terminal Aerodrome Forecast
Issued by NWS Bismarck, ND

Home | Current Version | Previous Version | Graphics & Text | Print | Product List | Glossary On
Versions: 1 2 3 4 5 6 7 8 9 10 11 12 13 14 15 16 17 18 19 20
065
FTUS43 KBIS 241127
TAFBIS
TAF
KBIS 241127Z 2412/2512 28010KT P6SM FEW040
     FM241400 29015G25KT P6SM SCT035
     FM241600 29017G27KT P6SM BKN045
     FM250000 30014G19KT P6SM BKN050
     FM250500 31010KT P6SM BKN025=

USA.gov is the U.S. government's official web portal to all federal, state and local government web resources and services.